Latest METARs, TAFs and NOTAMs for MMSD


---------------------------------------------------------------------------
	(OBSERVATIONS)
MMSD 261059Z NIL=
MMSD 260959Z NIL=
MMSD 260859Z NIL=
---------------------------------------------------------------------------
	(TERMINAL AREA FORECAST)
MMSD 251655Z 2518/2618 00000KT P6SM SKC
    FM252000 14015KT P6SM SCT040
    FM260300 00000KT P6SM SCT120 BKN250=
---------------------------------------------------------------------------
	(NOTAMS)


MMSD A4529/18 ON STRIPS MANOEUVRING AREA WIP. 12 AUG 01:46 2018
    UNTIL 30 NOV 16:00 2018. CREATED: 12 AUG 01:48 2018

MMSD A5280/18 ON STRIPS RWY 16/34 BTN TWYS C AND B WIP. 2300/1100
    DLY, 10 SEP 23:00 2018 UNTIL 29 SEP 11:00 2018. CREATED:
    10 SEP 22:44 2018

MMSD A5510/18 ABN U/S. 19 SEP 01:30 2018 UNTIL 19 DEC 22:00 2018.
    CREATED: 19 SEP 01:20 2018

---------------------------------------------------------------------------